sensor_id;sensor_type;location;lat;lon;timestamp;pressure;altitude;pressure_sealevel;temperature;humidity
75775;BME280;64505;51.458;7.556;2023-10-13T00:01:07;99497.63;;;16.25;100.00
75775;BME280;64505;51.458;7.556;2023-10-13T00:03:09;99503.75;;;16.26;100.00
75775;BME280;64505;51.458;7.556;2023-10-13T00:05:17;99500.03;;;16.27;100.00
75775;BME280;64505;51.458;7.556;2023-10-13T00:07:19;99505.63;;;16.25;100.00
75775;BME280;64505;51.458;7.556;2023-10-13T00:09:20;99495.50;;;16.28;100.00
75775;BME280;64505;51.458;7.556;2023-10-13T00:11:26;99491.75;;;16.23;100.00
75775;BME280;64505;51.458;7.556;2023-10-13T00:13:29;99497.34;;;16.22;100.00
75775;BME280;64505;51.458;7.556;2023-10-13T00:15:45;99490.66;;;16.24;100.00
75775;BME280;64505;51.458;7.556;2023-10-13T00:18:07;99493.88;;;16.27;100.00
75775;BME280;64505;51.458;7.556;2023-10-13T00:20:13;99498.94;;;16.28;100.00
75775;BME280;64505;51.458;7.556;2023-10-13T00:22:18;99488.00;;;16.24;100.00
75775;BME280;64505;51.458;7.556;2023-10-13T00:24:21;99485.88;;;16.32;100.00
75775;BME280;64505;51.458;7.556;2023-10-13T00:26:25;99480.81;;;16.30;100.00
75775;BME280;64505;51.458;7.556;2023-10-13T00:28:31;99483.75;;;16.29;100.00
75775;BME280;64505;51.458;7.556;2023-10-13T00:30:56;99481.34;;;16.32;100.00
75775;BME280;64505;51.458;7.556;2023-10-13T00:33:12;99477.09;;;16.31;100.00
75775;BME280;64505;51.458;7.556;2023-10-13T00:35:13;99474.13;;;16.33;100.00
75775;BME280;64505;51.458;7.556;2023-10-13T00:37:26;99473.06;;;16.29;100.00
75775;BME280;64505;51.458;7.556;2023-10-13T00:39:42;99474.16;;;16.28;100.00
75775;BME280;64505;51.458;7.556;2023-10-13T00:41:46;99470.94;;;16.31;100.00
75775;BME280;64505;51.458;7.556;2023-10-13T00:43:53;99470.94;;;16.31;100.00
75775;BME280;64505;51.458;7.556;2023-10-13T00:46:06;99464.28;;;16.33;100.00
75775;BME280;64505;51.458;7.556;2023-10-13T00:48:10;99468.81;;;16.33;100.00
75775;BME280;64505;51.458;7.556;2023-10-13T00:50:17;99462.13;;;16.30;100.00
75775;BME280;64505;51.458;7.556;2023-10-13T00:52:19;99447.47;;;16.28;100.00
75775;BME280;64505;51.458;7.556;2023-10-13T00:54:20;99450.91;;;16.28;100.00
75775;BME280;64505;51.458;7.556;2023-10-13T00:56:28;99449.84;;;16.29;100.00
75775;BME280;64505;51.458;7.556;2023-10-13T00:58:30;99452.25;;;16.25;100.00
75775;BME280;64505;51.458;7.556;2023-10-13T01:00:32;99449.84;;;16.29;100.00
75775;BME280;64505;51.458;7.556;2023-10-13T01:02:34;99448.00;;;16.30;100.00
75775;BME280;64505;51.458;7.556;2023-10-13T01:04:41;99453.59;;;16.28;100.00
75775;BME280;64505;51.458;7.556;2023-10-13T01:06:43;99459.47;;;16.30;100.00
75775;BME280;64505;51.458;7.556;2023-10-13T01:08:48;99457.59;;;16.31;100.00
75775;BME280;64505;51.458;7.556;2023-10-13T01:10:52;99452.00;;;16.32;100.00
75775;BME280;64505;51.458;7.556;2023-10-13T01:12:55;99454.66;;;16.32;100.00
75775;BME280;64505;51.458;7.556;2023-10-13T01:14:57;99445.06;;;16.31;100.00
75775;BME280;64505;51.458;7.556;2023-10-13T01:16:58;99445.06;;;16.31;100.00
75775;BME280;64505;51.458;7.556;2023-10-13T01:19:03;99436.78;;;16.33;100.00
75775;BME280;64505;51.458;7.556;2023-10-13T01:21:06;99429.59;;;16.33;100.00
75775;BME280;64505;51.458;7.556;2023-10-13T01:23:13;99438.09;;;16.35;100.00
75775;BME280;64505;51.458;7.556;2023-10-13T01:25:24;99432.50;;;16.37;100.00
75775;BME280;64505;51.458;7.556;2023-10-13T01:27:29;99418.91;;;16.38;100.00
75775;BME280;64505;51.458;7.556;2023-10-13T01:29:31;99427.69;;;16.39;100.00
75775;BME280;64505;51.458;7.556;2023-10-13T01:31:32;99428.50;;;16.39;100.00
75775;BME280;64505;51.458;7.556;2023-10-13T01:33:38;99429.31;;;16.40;100.00
75775;BME280;64505;51.458;7.556;2023-10-13T01:35:40;99422.38;;;16.39;100.00
75775;BME280;64505;51.458;7.556;2023-10-13T01:37:48;99420.50;;;16.44;100.00
75775;BME280;64505;51.458;7.556;2023-10-13T01:39:51;99414.09;;;16.40;100.00
75775;BME280;64505;51.458;7.556;2023-10-13T01:41:53;99411.44;;;16.45;100.00
75775;BME280;64505;51.458;7.556;2023-10-13T01:43:58;99410.09;;;16.43;100.00
75775;BME280;64505;51.458;7.556;2023-10-13T01:45:59;99401.56;;;16.41;100.00
75775;BME280;64505;51.458;7.556;2023-10-13T01:48:01;99402.63;;;16.40;100.00
75775;BME280;64505;51.458;7.556;2023-10-13T01:50:03;99407.97;;;16.40;100.00
75775;BME280;64505;51.458;7.556;2023-10-13T01:52:22;99403.97;;;16.42;100.00
75775;BME280;64505;51.458;7.556;2023-10-13T01:54:26;99398.63;;;16.47;100.00
75775;BME280;64505;51.458;7.556;2023-10-13T01:56:28;99396.25;;;16.46;100.00
75775;BME280;64505;51.458;7.556;2023-10-13T01:58:32;99387.16;;;16.42;100.00
75775;BME280;64505;51.458;7.556;2023-10-13T02:00:35;99388.22;;;16.41;100.00
75775;BME280;64505;51.458;7.556;2023-10-13T02:02:42;99394.06;;;16.43;100.00
75775;BME280;64505;51.458;7.556;2023-10-13T02:04:46;99391.16;;;16.44;100.00
75775;BME280;64505;51.458;7.556;2023-10-13T02:06:56;99392.75;;;16.45;100.00
75775;BME280;64505;51.458;7.556;2023-10-13T02:09:05;99385.81;;;16.39;100.00
75775;BME280;64505;51.458;7.556;2023-10-13T02:11:11;99386.88;;;16.43;100.00
75775;BME280;64505;51.458;7.556;2023-10-13T02:13:14;99379.69;;;16.44;100.00
75775;BME280;64505;51.458;7.556;2023-10-13T02:15:19;99379.69;;;16.44;100.00
75775;BME280;64505;51.458;7.556;2023-10-13T02:17:23;99381.03;;;16.41;100.00
75775;BME280;64505;51.458;7.556;2023-10-13T02:19:28;99373.28;;;16.40;100.00
75775;BME280;64505;51.458;7.556;2023-10-13T02:21:34;99374.34;;;16.44;100.00
75775;BME280;64505;51.458;7.556;2023-10-13T02:23:41;99371.94;;;16.47;100.00
75775;BME280;64505;51.458;7.556;2023-10-13T02:25:45;99363.91;;;16.47;100.00
75775;BME280;64505;51.458;7.556;2023-10-13T02:27:47;99356.97;;;16.46;100.00
75775;BME280;64505;51.458;7.556;2023-10-13T02:29:59;99372.47;;;16.49;100.00
75775;BME280;64505;51.458;7.556;2023-10-13T02:32:01;99359.91;;;16.55;100.00
75775;BME280;64505;51.458;7.556;2023-10-13T02:34:06;99361.25;;;16.52;100.00
75775;BME280;64505;51.458;7.556;2023-10-13T02:36:10;99353.78;;;16.54;100.00
75775;BME280;64505;51.458;7.556;2023-10-13T02:38:13;99349.50;;;16.53;100.00
75775;BME280;64505;51.458;7.556;2023-10-13T02:40:16;99344.19;;;16.58;100.00
75775;BME280;64505;51.458;7.556;2023-10-13T02:42:24;99337.78;;;16.59;100.00
75775;BME280;64505;51.458;7.556;2023-10-13T02:44:25;99340.44;;;16.59;100.00
75775;BME280;64505;51.458;7.556;2023-10-13T02:46:34;99337.78;;;16.59;100.00
75775;BME280;64505;51.458;7.556;2023-10-13T02:48:41;99331.66;;;16.59;100.00
75775;BME280;64505;51.458;7.556;2023-10-13T02:50:55;99336.44;;;16.57;100.00
75775;BME280;64505;51.458;7.556;2023-10-13T02:52:57;99331.66;;;16.59;100.00
75775;BME280;64505;51.458;7.556;2023-10-13T02:54:58;99334.56;;;16.57;100.00
75775;BME280;64505;51.458;7.556;2023-10-13T02:56:59;99329.78;;;16.59;100.00
75775;BME280;64505;51.458;7.556;2023-10-13T02:59:04;99330.03;;;16.58;100.00
75775;BME280;64505;51.458;7.556;2023-10-13T03:01:08;99324.44;;;16.59;100.00
75775;BME280;64505;51.458;7.556;2023-10-13T03:03:18;99319.34;;;16.58;100.00
75775;BME280;64505;51.458;7.556;2023-10-13T03:05:21;99317.50;;;16.58;100.00
75775;BME280;64505;51.458;7.556;2023-10-13T03:07:24;99320.97;;;16.59;100.00
75775;BME280;64505;51.458;7.556;2023-10-13T03:09:29;99318.56;;;16.57;100.00
75775;BME280;64505;51.458;7.556;2023-10-13T03:11:31;99320.41;;;16.57;100.00
75775;BME280;64505;51.458;7.556;2023-10-13T03:13:34;99312.94;;;16.54;100.00
75775;BME280;64505;51.458;7.556;2023-10-13T03:15:36;99314.00;;;16.58;100.00
75775;BME280;64505;51.458;7.556;2023-10-13T03:17:37;99307.06;;;16.57;100.00
75775;BME280;64505;51.458;7.556;2023-10-13T03:19:45;99306.28;;;16.56;100.00
75775;BME280;64505;51.458;7.556;2023-10-13T03:21:55;99301.19;;;16.55;100.00
75775;BME280;64505;51.458;7.556;2023-10-13T03:23:59;99289.72;;;16.54;100.00
75775;BME280;64505;51.458;7.556;2023-10-13T03:26:14;99291.31;;;16.55;100.00
75775;BME280;64505;51.458;7.556;2023-10-13T03:28:18;99287.03;;;16.54;100.00
75775;BME280;64505;51.458;7.556;2023-10-13T03:30:25;99282.28;;;16.56;100.00
75775;BME280;64505;51.458;7.556;2023-10-13T03:32:43;99290.50;;;16.55;100.00
75775;BME280;64505;51.458;7.556;2023-10-13T03:34:48;99283.31;;;16.55;100.00
75775;BME280;64505;51.458;7.556;2023-10-13T03:37:02;99277.97;;;16.55;100.00
75775;BME280;64505;51.458;7.556;2023-10-13T03:39:13;99278.25;;;16.59;100.00
75775;BME280;64505;51.458;7.556;2023-10-13T03:41:15;99280.13;;;16.58;100.00
75775;BME280;64505;51.458;7.556;2023-10-13T03:43:26;99279.31;;;16.53;100.00
75775;BME280;64505;51.458;7.556;2023-10-13T03:47:41;99267.56;;;16.59;100.00
75775;BME280;64505;51.458;7.556;2023-10-13T03:49:47;99268.38;;;16.59;100.00
75775;BME280;64505;51.458;7.556;2023-10-13T03:51:52;99268.63;;;16.58;100.00
75775;BME280;64505;51.458;7.556;2023-10-13T03:53:56;99267.03;;;16.57;100.00
75775;BME280;64505;51.458;7.556;2023-10-13T03:55:57;99259.03;;;16.57;100.00
75775;BME280;64505;51.458;7.556;2023-10-13T03:58:09;99252.63;;;16.58;100.00
75775;BME280;64505;51.458;7.556;2023-10-13T04:00:12;99248.88;;;16.59;100.00
75775;BME280;64505;51.458;7.556;2023-10-13T04:02:24;99245.41;;;16.58;100.00
75775;BME280;64505;51.458;7.556;2023-10-13T04:04:29;99240.34;;;16.57;100.00
75775;BME280;64505;51.458;7.556;2023-10-13T04:06:49;99235.81;;;16.57;100.00
75775;BME280;64505;51.458;7.556;2023-10-13T04:09:00;99227.00;;;16.57;100.00
75775;BME280;64505;51.458;7.556;2023-10-13T04:11:36;99228.59;;;16.58;100.00
75775;BME280;64505;51.458;7.556;2023-10-13T04:13:56;99226.72;;;16.53;100.00
75775;BME280;64505;51.458;7.556;2023-10-13T04:16:16;99226.44;;;16.55;100.00
75775;BME280;64505;51.458;7.556;2023-10-13T04:18:23;99213.38;;;16.58;100.00
75775;BME280;64505;51.458;7.556;2023-10-13T04:20:44;99215.25;;;16.58;100.00
75775;BME280;64505;51.458;7.556;2023-10-13T04:22:47;99210.72;;;16.58;100.00
75775;BME280;64505;51.458;7.556;2023-10-13T04:24:51;99205.91;;;16.55;100.00
75775;BME280;64505;51.458;7.556;2023-10-13T04:27:01;99209.66;;;16.59;100.00
75775;BME280;64505;51.458;7.556;2023-10-13T04:29:12;99205.13;;;16.60;100.00
75775;BME280;64505;51.458;7.556;2023-10-13T04:31:33;99195.50;;;16.59;100.00
75775;BME280;64505;51.458;7.556;2023-10-13T04:33:57;99192.03;;;16.58;100.00
75775;BME280;64505;51.458;7.556;2023-10-13T04:36:11;99181.06;;;16.55;100.00
75775;BME280;64505;51.458;7.556;2023-10-13T04:38:17;99177.63;;;16.59;100.00
75775;BME280;64505;51.458;7.556;2023-10-13T04:40:21;99182.16;;;16.59;100.00
75775;BME280;64505;51.458;7.556;2023-10-13T04:42:26;99180.84;;;16.56;100.00
75775;BME280;64505;51.458;7.556;2023-10-13T04:44:40;99178.94;;;16.57;100.00
75775;BME280;64505;51.458;7.556;2023-10-13T04:46:41;99165.34;;;16.58;100.00
75775;BME280;64505;51.458;7.556;2023-10-13T04:48:49;99173.31;;;16.53;100.00
75775;BME280;64505;51.458;7.556;2023-10-13T04:50:51;99169.06;;;16.57;100.00
75775;BME280;64505;51.458;7.556;2023-10-13T04:52:55;99154.91;;;16.57;100.00
75775;BME280;64505;51.458;7.556;2023-10-13T04:55:03;99153.06;;;16.57;100.00
75775;BME280;64505;51.458;7.556;2023-10-13T04:57:25;99162.66;;;16.53;100.00
75775;BME280;64505;51.458;7.556;2023-10-13T04:59:33;99154.66;;;16.58;100.00
75775;BME280;64505;51.458;7.556;2023-10-13T05:01:39;99150.94;;;16.59;100.00
75775;BME280;64505;51.458;7.556;2023-10-13T05:04:00;99145.34;;;16.56;100.00
75775;BME280;64505;51.458;7.556;2023-10-13T05:06:23;99146.09;;;16.61;100.00
75775;BME280;64505;51.458;7.556;2023-10-13T05:08:43;99139.97;;;16.61;100.00
75775;BME280;64505;51.458;7.556;2023-10-13T05:11:04;99142.91;;;16.59;100.00
75775;BME280;64505;51.458;7.556;2023-10-13T05:13:25;99141.00;;;16.65;100.00
75775;BME280;64505;51.458;7.556;2023-10-13T05:15:47;99147.16;;;16.65;100.00
75775;BME280;64505;51.458;7.556;2023-10-13T05:18:07;99147.41;;;16.64;100.00
75775;BME280;64505;51.458;7.556;2023-10-13T05:20:27;99142.88;;;16.64;100.00
75775;BME280;64505;51.458;7.556;2023-10-13T05:22:47;99147.16;;;16.65;100.00
75775;BME280;64505;51.458;7.556;2023-10-13T05:25:07;99132.44;;;16.68;100.00
75775;BME280;64505;51.458;7.556;2023-10-13T05:27:27;99131.13;;;16.70;100.00
75775;BME280;64505;51.458;7.556;2023-10-13T05:29:47;99128.19;;;16.67;100.00
75775;BME280;64505;51.458;7.556;2023-10-13T05:32:08;99127.41;;;16.66;100.00
75775;BME280;64505;51.458;7.556;2023-10-13T05:34:28;99126.84;;;16.69;100.00
75775;BME280;64505;51.458;7.556;2023-10-13T05:36:48;99123.09;;;16.70;100.00
75775;BME280;64505;51.458;7.556;2023-10-13T05:39:08;99125.78;;;16.70;100.00
75775;BME280;64505;51.458;7.556;2023-10-13T05:41:28;99124.97;;;16.70;100.00
75775;BME280;64505;51.458;7.556;2023-10-13T05:44:08;99118.81;;;16.69;100.00
75775;BME280;64505;51.458;7.556;2023-10-13T05:46:29;99119.06;;;16.73;100.00
75775;BME280;64505;51.458;7.556;2023-10-13T05:48:51;99124.91;;;16.75;100.00
75775;BME280;64505;51.458;7.556;2023-10-13T05:51:00;99125.47;;;16.77;100.00
75775;BME280;64505;51.458;7.556;2023-10-13T05:53:20;99115.84;;;16.76;100.00
75775;BME280;64505;51.458;7.556;2023-10-13T05:56:00;99122.50;;;16.79;100.00
75775;BME280;64505;51.458;7.556;2023-10-13T05:58:19;99129.44;;;16.80;100.00
75775;BME280;64505;51.458;7.556;2023-10-13T06:00:41;99124.91;;;16.80;100.00
75775;BME280;64505;51.458;7.556;2023-10-13T06:03:01;99126.75;;;16.85;100.00
75775;BME280;64505;51.458;7.556;2023-10-13T06:05:21;99126.78;;;16.80;100.00
75775;BME280;64505;51.458;7.556;2023-10-13T06:07:41;99137.38;;;16.90;100.00
75775;BME280;64505;51.458;7.556;2023-10-13T06:10:01;99135.56;;;16.85;100.00
75775;BME280;64505;51.458;7.556;2023-10-13T06:12:21;99139.00;;;16.86;100.00
75775;BME280;64505;51.458;7.556;2023-10-13T06:14:45;99133.41;;;16.87;100.00
75775;BME280;64505;51.458;7.556;2023-10-13T06:17:05;99121.34;;;16.90;100.00
75775;BME280;64505;51.458;7.556;2023-10-13T06:19:25;99125.13;;;16.89;100.00
75775;BME280;64505;51.458;7.556;2023-10-13T06:21:45;99136.78;;;16.98;100.00
75775;BME280;64505;51.458;7.556;2023-10-13T06:24:07;99141.38;;;16.92;100.00
75775;BME280;64505;51.458;7.556;2023-10-13T06:26:27;99140.00;;;17.00;100.00
75775;BME280;64505;51.458;7.556;2023-10-13T06:28:47;99144.25;;;17.01;100.00
75775;BME280;64505;51.458;7.556;2023-10-13T06:30:58;99143.16;;;17.07;100.00
75775;BME280;64505;51.458;7.556;2023-10-13T06:32:59;99151.41;;;17.10;100.00
75775;BME280;64505;51.458;7.556;2023-10-13T06:35:04;99139.88;;;17.15;100.00
75775;BME280;64505;51.458;7.556;2023-10-13T06:37:20;99126.81;;;17.13;100.00
75775;BME280;64505;51.458;7.556;2023-10-13T06:39:31;99126.56;;;17.10;100.00
75775;BME280;64505;51.458;7.556;2023-10-13T06:41:38;99129.75;;;17.12;100.00
75775;BME280;64505;51.458;7.556;2023-10-13T06:43:42;99120.88;;;17.21;100.00
75775;BME280;64505;51.458;7.556;2023-10-13T06:45:44;99124.63;;;17.15;100.00
75775;BME280;64505;51.458;7.556;2023-10-13T06:48:01;99120.09;;;17.16;100.00
75775;BME280;64505;51.458;7.556;2023-10-13T06:50:03;99113.44;;;17.13;100.00
75775;BME280;64505;51.458;7.556;2023-10-13T06:52:05;99104.88;;;17.16;100.00
75775;BME280;64505;51.458;7.556;2023-10-13T06:54:07;99084.00;;;17.18;100.00
75775;BME280;64505;51.458;7.556;2023-10-13T06:56:20;99093.63;;;17.19;100.00
75775;BME280;64505;51.458;7.556;2023-10-13T06:58:45;99098.69;;;17.21;100.00
75775;BME280;64505;51.458;7.556;2023-10-13T07:00:48;99104.53;;;17.23;100.00
75775;BME280;64505;51.458;7.556;2023-10-13T07:02:56;99090.94;;;17.19;100.00
75775;BME280;64505;51.458;7.556;2023-10-13T07:05:07;99084.75;;;17.24;100.00
75775;BME280;64505;51.458;7.556;2023-10-13T07:07:13;99078.06;;;17.27;100.00
75775;BME280;64505;51.458;7.556;2023-10-13T07:09:17;99088.16;;;17.30;100.00
75775;BME280;64505;51.458;7.556;2023-10-13T07:11:37;99079.31;;;17.34;100.00
75775;BME280;64505;51.458;7.556;2023-10-13T07:13:44;99079.56;;;17.38;100.00
75775;BME280;64505;51.458;7.556;2023-10-13T07:15:51;99084.31;;;17.41;100.00
75775;BME280;64505;51.458;7.556;2023-10-13T07:17:53;99084.00;;;17.47;100.00
75775;BME280;64505;51.458;7.556;2023-10-13T07:20:00;99090.09;;;17.53;100.00
75775;BME280;64505;51.458;7.556;2023-10-13T07:22:14;99079.91;;;17.60;100.00
75775;BME280;64505;51.458;7.556;2023-10-13T07:24:22;99075.59;;;17.64;100.00
75775;BME280;64505;51.458;7.556;2023-10-13T07:26:24;99077.47;;;17.63;100.00
75775;BME280;64505;51.458;7.556;2023-10-13T07:28:25;99068.81;;;17.72;100.00
75775;BME280;64505;51.458;7.556;2023-10-13T07:30:27;99075.97;;;17.76;100.00
75775;BME280;64505;51.458;7.556;2023-10-13T07:32:28;99074.03;;;17.82;100.00
75775;BME280;64505;51.458;7.556;2023-10-13T07:34:35;99078.81;;;17.85;100.00
75775;BME280;64505;51.458;7.556;2023-10-13T07:36:40;99067.31;;;17.84;100.00
75775;BME280;64505;51.458;7.556;2023-10-13T07:38:45;99070.97;;;17.93;100.00
75775;BME280;64505;51.458;7.556;2023-10-13T07:41:06;99072.94;;;18.06;100.00
75775;BME280;64505;51.458;7.556;2023-10-13T07:43:10;99073.47;;;18.08;100.00
75775;BME280;64505;51.458;7.556;2023-10-13T07:45:12;99076.91;;;18.09;100.00
75775;BME280;64505;51.458;7.556;2023-10-13T07:47:14;99069.31;;;18.16;100.00
75775;BME280;64505;51.458;7.556;2023-10-13T07:49:16;99067.53;;;18.11;100.00
75775;BME280;64505;51.458;7.556;2023-10-13T07:51:18;99063.47;;;18.14;100.00
75775;BME280;64505;51.458;7.556;2023-10-13T07:53:21;99057.78;;;18.20;100.00
75775;BME280;64505;51.458;7.556;2023-10-13T07:55:25;99051.28;;;18.27;100.00
75775;BME280;64505;51.458;7.556;2023-10-13T07:57:27;99051.56;;;18.25;100.00
75775;BME280;64505;51.458;7.556;2023-10-13T07:59:31;99051.50;;;18.30;100.00
75775;BME280;64505;51.458;7.556;2023-10-13T08:01:33;99047.28;;;18.24;100.00
75775;BME280;64505;51.458;7.556;2023-10-13T08:03:36;99047.13;;;18.34;100.00
75775;BME280;64505;51.458;7.556;2023-10-13T08:05:55;99047.34;;;18.38;100.00
75775;BME280;64505;51.458;7.556;2023-10-13T08:08:00;99049.38;;;18.46;100.00
75775;BME280;64505;51.458;7.556;2023-10-13T08:10:01;99041.94;;;18.43;100.00
75775;BME280;64505;51.458;7.556;2023-10-13T08:12:03;99048.91;;;18.44;100.00
75775;BME280;64505;51.458;7.556;2023-10-13T08:14:07;99040.56;;;18.45;100.00
75775;BME280;64505;51.458;7.556;2023-10-13T08:16:39;99032.63;;;18.40;100.00
75775;BME280;64505;51.458;7.556;2023-10-13T08:18:49;99032.91;;;18.39;100.00
75775;BME280;64505;51.458;7.556;2023-10-13T08:20:51;99033.69;;;18.39;100.00
75775;BME280;64505;51.458;7.556;2023-10-13T08:22:55;99035.44;;;18.30;100.00
75775;BME280;64505;51.458;7.556;2023-10-13T08:25:14;99026.09;;;18.28;100.00
75775;BME280;64505;51.458;7.556;2023-10-13T08:27:22;99025.28;;;18.27;100.00
75775;BME280;64505;51.458;7.556;2023-10-13T08:29:36;99027.69;;;18.29;100.00
75775;BME280;64505;51.458;7.556;2023-10-13T08:32:10;99028.63;;;18.38;100.00
75775;BME280;64505;51.458;7.556;2023-10-13T08:34:14;99019.72;;;18.42;100.00
75775;BME280;64505;51.458;7.556;2023-10-13T08:36:24;99018.59;;;18.48;100.00
75775;BME280;64505;51.458;7.556;2023-10-13T08:38:30;99015.59;;;18.50;100.00
75775;BME280;64505;51.458;7.556;2023-10-13T08:40:35;99019.66;;;18.47;100.00
75775;BME280;64505;51.458;7.556;2023-10-13T08:42:56;99011.09;;;18.45;100.00
75775;BME280;64505;51.458;7.556;2023-10-13T08:47:30;98998.47;;;18.51;100.00
75775;BME280;64505;51.458;7.556;2023-10-13T08:49:38;99002.66;;;18.57;100.00
75775;BME280;64505;51.458;7.556;2023-10-13T08:51:42;99005.50;;;18.65;100.00
75775;BME280;64505;51.458;7.556;2023-10-13T08:54:00;99010.75;;;18.71;100.00
75775;BME280;64505;51.458;7.556;2023-10-13T08:56:10;99010.47;;;18.72;100.00
75775;BME280;64505;51.458;7.556;2023-10-13T08:58:15;99006.13;;;18.76;100.00
75775;BME280;64505;51.458;7.556;2023-10-13T09:00:16;99010.59;;;18.81;100.00
75775;BME280;64505;51.458;7.556;2023-10-13T09:02:50;99002.88;;;18.93;100.00
75775;BME280;64505;51.458;7.556;2023-10-13T09:05:11;98998.03;;;18.95;100.00
75775;BME280;64505;51.458;7.556;2023-10-13T09:07:31;98994.66;;;19.03;100.00
75775;BME280;64505;51.458;7.556;2023-10-13T09:09:44;98994.97;;;19.15;100.00
75775;BME280;64505;51.458;7.556;2023-10-13T09:11:55;98996.31;;;19.31;100.00
75775;BME280;64505;51.458;7.556;2023-10-13T09:14:15;99001.19;;;19.43;100.00
75775;BME280;64505;51.458;7.556;2023-10-13T09:16:36;98984.81;;;19.58;100.00
75775;BME280;64505;51.458;7.556;2023-10-13T09:18:44;98982.50;;;19.65;99.17
75775;BME280;64505;51.458;7.556;2023-10-13T09:20:48;98982.50;;;19.65;97.31
75775;BME280;64505;51.458;7.556;2023-10-13T09:23:09;98970.69;;;19.66;98.11
75775;BME280;64505;51.458;7.556;2023-10-13T09:25:10;98973.19;;;19.62;98.46
75775;BME280;64505;51.458;7.556;2023-10-13T09:27:15;98968.03;;;19.66;100.00
75775;BME280;64505;51.458;7.556;2023-10-13T09:29:19;98965.25;;;19.57;95.82
75775;BME280;64505;51.458;7.556;2023-10-13T09:31:22;98974.00;;;19.63;97.22
75775;BME280;64505;51.458;7.556;2023-10-13T09:33:29;98973.09;;;19.68;95.74
75775;BME280;64505;51.458;7.556;2023-10-13T09:35:51;98954.38;;;19.76;96.83
75775;BME280;64505;51.458;7.556;2023-10-13T09:37:53;98959.06;;;19.84;94.88
75775;BME280;64505;51.458;7.556;2023-10-13T09:39:58;98965.63;;;19.78;92.81
75775;BME280;64505;51.458;7.556;2023-10-13T09:42:07;98951.28;;;19.83;94.41
75775;BME280;64505;51.458;7.556;2023-10-13T09:44:11;98946.81;;;19.92;89.50
75775;BME280;64505;51.458;7.556;2023-10-13T09:46:19;98942.13;;;19.97;89.25
75775;BME280;64505;51.458;7.556;2023-10-13T09:48:39;98944.41;;;20.04;90.84
75775;BME280;64505;51.458;7.556;2023-10-13T09:50:48;98943.59;;;20.03;90.40
75775;BME280;64505;51.458;7.556;2023-10-13T09:52:50;98943.00;;;20.06;90.06
75775;BME280;64505;51.458;7.556;2023-10-13T09:55:00;98946.34;;;20.12;89.41
75775;BME280;64505;51.458;7.556;2023-10-13T09:57:11;98947.47;;;20.11;89.25
75775;BME280;64505;51.458;7.556;2023-10-13T09:59:21;98946.34;;;20.12;89.48
75775;BME280;64505;51.458;7.556;2023-10-13T10:01:28;98943.25;;;20.19;86.55
75775;BME280;64505;51.458;7.556;2023-10-13T10:03:48;98936.50;;;20.21;83.71
75775;BME280;64505;51.458;7.556;2023-10-13T10:06:21;98924.91;;;20.34;86.78
75775;BME280;64505;51.458;7.556;2023-10-13T10:08:33;98939.63;;;20.37;84.63
75775;BME280;64505;51.458;7.556;2023-10-13T10:11:01;98925.47;;;20.45;84.41
75775;BME280;64505;51.458;7.556;2023-10-13T10:13:15;98925.97;;;20.47;84.24
75775;BME280;64505;51.458;7.556;2023-10-13T10:15:41;98922.53;;;20.55;81.36
75775;BME280;64505;51.458;7.556;2023-10-13T10:17:45;98919.72;;;20.60;80.57
75775;BME280;64505;51.458;7.556;2023-10-13T10:19:52;98904.75;;;20.68;82.62
75775;BME280;64505;51.458;7.556;2023-10-13T10:22:02;98907.63;;;20.71;81.64
75775;BME280;64505;51.458;7.556;2023-10-13T10:24:16;98912.91;;;20.85;77.29
75775;BME280;64505;51.458;7.556;2023-10-13T10:26:30;98918.97;;;20.99;82.21
75775;BME280;64505;51.458;7.556;2023-10-13T10:28:38;98922.31;;;21.04;81.65
75775;BME280;64505;51.458;7.556;2023-10-13T10:30:43;98913.63;;;21.07;79.42
75775;BME280;64505;51.458;7.556;2023-10-13T10:32:54;98919.63;;;21.04;79.77
75775;BME280;64505;51.458;7.556;2023-10-13T10:35:03;98904.69;;;21.12;80.74
75775;BME280;64505;51.458;7.556;2023-10-13T10:37:16;98910.72;;;21.26;79.18
75775;BME280;64505;51.458;7.556;2023-10-13T10:39:19;98917.41;;;21.37;78.26
75775;BME280;64505;51.458;7.556;2023-10-13T10:41:26;98922.50;;;21.47;76.89
75775;BME280;64505;51.458;7.556;2023-10-13T10:43:40;98938.66;;;21.65;76.91
75775;BME280;64505;51.458;7.556;2023-10-13T10:45:48;98925.88;;;21.79;77.84
75775;BME280;64505;51.458;7.556;2023-10-13T10:47:50;98919.06;;;21.90;76.85
75775;BME280;64505;51.458;7.556;2023-10-13T10:49:53;98923.50;;;21.86;77.15
75775;BME280;64505;51.458;7.556;2023-10-13T10:51:58;98913.88;;;21.93;77.27
75775;BME280;64505;51.458;7.556;2023-10-13T10:54:05;98899.44;;;21.89;75.76
75775;BME280;64505;51.458;7.556;2023-10-13T10:56:14;98893.44;;;21.92;77.09
75775;BME280;64505;51.458;7.556;2023-10-13T10:58:23;98891.03;;;21.82;71.85
75775;BME280;64505;51.458;7.556;2023-10-13T11:00:31;98878.56;;;22.12;72.96
75775;BME280;64505;51.458;7.556;2023-10-13T11:02:57;98879.19;;;22.18;72.84
75775;BME280;64505;51.458;7.556;2023-10-13T11:04:59;98879.19;;;22.18;74.86
75775;BME280;64505;51.458;7.556;2023-10-13T11:07:01;98873.00;;;22.34;73.10
75775;BME280;64505;51.458;7.556;2023-10-13T11:11:05;98873.94;;;22.38;74.05
75775;BME280;64505;51.458;7.556;2023-10-13T11:13:19;98861.91;;;22.27;72.04
75775;BME280;64505;51.458;7.556;2023-10-13T11:15:23;98869.03;;;22.32;73.06
75775;BME280;64505;51.458;7.556;2023-10-13T11:17:34;98857.78;;;22.30;73.37
75775;BME280;64505;51.458;7.556;2023-10-13T11:19:52;98858.72;;;22.34;73.00
75775;BME280;64505;51.458;7.556;2023-10-13T11:21:54;98849.19;;;22.36;72.37
75775;BME280;64505;51.458;7.556;2023-10-13T11:23:57;98843.66;;;22.41;74.54
75775;BME280;64505;51.458;7.556;2023-10-13T11:26:08;98848.69;;;22.51;73.56